This is the latest recevied weather packets stored in our database for station/object WA9AFM-10. If no packets are shown the sender has not sent any weather packets the latest 10 day(s).
| Time | Temp. | Humidity | Pressure | Rain* | Wind** | Luminosity | Snow |
|---|---|---|---|---|---|---|---|
| 1778181109 | 23.33° C | 40% | 1012.5 hPa | 0 mm | - | - | - |
| 1778177508 | 21.67° C | 41% | 1013.4 hPa | 0 mm | - | - | - |
| 1778175708 | 21.11° C | 43% | 1013.9 hPa | 0 mm | - | - | - |
| 1778173909 | 20.56° C | 43% | 1014.5 hPa | 0 mm | - | - | - |
| 1778170308 | 18.89° C | 46% | 1015.3 hPa | 0 mm | - | - | - |
| 1778164909 | 16.11° C | 52% | 1016.1 hPa | 0 mm | - | - | - |
| 1778163110 | 15° C | 58% | 1016.3 hPa | 0 mm | - | - | - |
| 1778161308 | 12.78° C | 69% | 1016.5 hPa | 0 mm | - | - | - |
| 1778159507 | 10° C | 83% | 1016.3 hPa | 0 mm | - | - | - |
| 1778154674 | 5° C | 92% | 1015.7 hPa | 0 mm | - | - | - |
| 1778152874 | 5° C | 91% | 1015.6 hPa | 0 mm | - | - | - |
| 1778151073 | 5° C | 91% | 1015.6 hPa | 0 mm | - | - | - |
| 1778149274 | 5° C | 91% | 1015.3 hPa | 0 mm | - | - | - |
| 1778145673 | 5° C | 89% | 1015 hPa | 0 mm | - | - | - |
| 1778143874 | 5.56° C | 88% | 1014.9 hPa | 0 mm | - | - | - |
| 1778142073 | 5.56° C | 87% | 1015 hPa | 0 mm | - | - | - |
| 1778140273 | 6.11° C | 86% | 1015.1 hPa | 0 mm | - | - | - |
| 1778138474 | 6.67° C | 85% | 1015 hPa | 0 mm | - | - | - |
| 1778136673 | 6.67° C | 84% | 1015 hPa | 0 mm | - | - | - |
| 1778134874 | 7.22° C | 82% | 1015.5 hPa | 0 mm | - | - | - |
| 1778133074 | 7.78° C | 78% | 1015.5 hPa | 0 mm | - | - | - |
| 1778129474 | 10.56° C | 71% | 1015.2 hPa | 0 mm | - | - | - |
| 1778127673 | 10.56° C | 71% | 1014.3 hPa | 0 mm | - | - | - |
| 1778125874 | 10.56° C | 70% | 1014.6 hPa | 0 mm | - | - | - |
| 1778122273 | 13.33° C | 60% | 1013.9 hPa | 0 mm | - | - | - |
* Rain latest hour (hover to see other rain measurements)
** Current wind speed in m/s (hover to see current wind gust speed)